• Join FlightAware (Why Join?)
  • Login
  • US Flag 
11:17PM EDT


 

Airport Tracker/Info


-or-


 

Live Flight TrackerFlight Track Log ✈ JBU1329 ✈ 03-May-2013 ✈ KBOS - KBWI

Flight Track Log - Related Links

Times and Time Zones

All times are in EDT time to prevent confusion due to time zone crossing. See the JBU1329 flight status page for this flight to view local times or setup timezone preferences in your user account.

Time Position Orientation Groundspeed Altitude Reporting Facility
EDT Latitude Longitude Course Direction KTS MPH feet Rate Location/Type
09:20AM 42.3833 -71.0000 258° West 121 139 1,200  Level KA90
09:22AM 42.3610 -70.7289 172° South  Level FlightAware Approximate
09:22AM 42.4544 -70.8839 50° Northeast 214 246 7,000  Level Boston Center
09:23AM 42.2712 -70.7599 228° Southwest  Level FlightAware Approximate
09:23AM 42.4469 -70.8053 97° East 220 253 9,600  Level Boston Center
09:24AM 42.2092 -70.8729 240° Southwest  Level FlightAware Approximate
09:24AM 42.3794 -70.7425 146° Southeast 235 270 11,500  Level Boston Center
09:25AM 42.1796 -71.0045 262° West  Level FlightAware Approximate
09:25AM 42.2817 -70.7647 190° South 272 313 14,200  Level Boston Center
09:26AM 42.1650 -71.1444 258° West  Level FlightAware Approximate
09:26AM 42.2358 -70.9089 247° West 295 339 17,300  Level Boston Center
09:27AM 42.2167 -71.0383 259° West 354 407 18,800 1,680 Climbing Boston Center
09:28AM 42.1975 -71.1903 260° West 390 449 20,700 1,620 Climbing Boston Center
09:29AM 42.1700 -71.3506 257° West 420 483 22,100 1,500 Climbing Boston Center
09:30AM 42.1444 -71.5161 258° West 441 507 23,700 1,440 Climbing Boston Center
09:31AM 42.1103 -71.6983 256° West 457 526 25,000 2,400 Climbing Boston Center
09:32AM 42.0822 -71.8694 258° West 474 545 28,600 2,760 Climbing Boston Center
09:33AM 42.0536 -72.0292 256° West 450 518 30,600 1,680 Climbing Boston Center
09:34AM 42.0311 -72.1633 257° West 430 495 32,000 660 Climbing Boston Center
09:35AM 42.0003 -72.3422 257° West 430 495 32,000  Level Boston Center
09:36AM 41.9711 -72.5100 257° West 453 521 32,000  Level Boston Center
09:37AM 41.9375 -72.6578 253° West 467 537 32,000  Level Boston Center
09:38AM 41.8497 -72.7997 230° Southwest 467 537 32,000  Level Boston Center
09:39AM 41.7447 -72.9492 227° Southwest 490 564 32,000  Level Boston Center
09:40AM 41.6503 -73.0792 226° Southwest 497 572 32,000  Level Boston Center
09:41AM 41.5769 -73.1811 226° Southwest 492 566 32,000  Level Boston Center
09:42AM 41.4736 -73.3211 225° Southwest 481 554 32,000  Level Boston Center
09:43AM 41.3808 -73.4497 226° Southwest 481 554 32,000  Level Boston Center
09:46AM 41.1714 -73.7728 229° Southwest 475 547 32,000  Level New York Center
09:47AM 41.0886 -73.9094 231° Southwest 485 558 32,000 -60 Level New York Center
09:48AM 41.0056 -74.0514 232° Southwest 485 558 31,900 -2,160 Descending New York Center
09:49AM 40.9119 -74.2006 230° Southwest 485 558 27,700 -3,660 Descending New York Center
09:50AM 40.8531 -74.3511 243° Southwest 480 552 24,600 -1,860 Descending New York Center
09:51AM 40.8069 -74.5022 248° West 459 528 24,000 -300 Descending New York Center
09:52AM 40.7622 -74.6561 249° West 459 528 24,000  Level New York Center
09:53AM 40.7156 -74.8067 248° West 449 517 24,000  Level New York Center
09:54AM 40.6583 -74.9564 243° Southwest 449 517 24,000  Level New York Center
09:55AM 40.5825 -75.0939 234° Southwest 455 524 24,000  Level New York Center
09:56AM 40.4869 -75.1944 219° Southwest 442 509 24,000  Level New York Center
09:57AM 40.3644 -75.2411 196° South 446 513 24,000 -420 Level New York Center
09:58AM 40.2475 -75.2986 201° Southwest 441 507 23,200 -1,020 Descending New York Center
09:59AM 40.1742 -75.4189 231° Southwest 429 494 22,000 -600 Descending New York Center
10:00AM 40.0844 -75.5242 222° Southwest 429 494 22,000  Level New York Center
10:01AM 39.9828 -75.6147 214° Southwest 435 501 22,000 -300 Level New York Center
10:02AM 39.8972 -75.7144 222° Southwest 435 501 21,500 -1,020 Descending New York Center
10:03AM 39.8406 -75.8239 236° Southwest 396 456 20,000 -2,400 Descending New York Center
10:06AM 39.6500 -76.1833 236° Southwest 327 376 11,700 -1,980 Descending Potomac TRACON
10:08AM 39.5428 -76.3239 218° Southwest  Level FlightAware Approximate
10:11AM 39.4333 -76.6333 270° West 276 318 4,000  Level Potomac TRACON
10:12AM 39.4000 -76.7167 243° Southwest 274 315 3,800 -540 Descending Potomac TRACON
10:13AM 39.3500 -76.7833 226° Southwest 274 315 3,000 -480 Descending Potomac TRACON
10:14AM 39.2833 -76.8167 201° Southwest 215 247 2,900 -120 Descending Potomac TRACON
10:15AM 39.1667 -76.6667 270° West  Level FlightAware Approximate
10:16AM 39.1754 -76.6683 270° West  Level Estimated